Time;durP1;ratioP1;P1;durP2;ratioP2;P2;SDS_P1;SDS_P2;PMS_P1;PMS_P2;Temp;Humidity;BMP_temperature;BMP_pressure;BME280_temperature;BME280_humidity;BME280_pressure;Samples;Min_cycle;Max_cycle;Signal;HPM_P1;HPM_P2
2023/07/15 00:01:36;;;;;;;7.53;6.08;;;;;;;14.77;68.60;100413.17;1749380;82;27343;-52
2023/07/15 00:04:07;;;;;;;10.28;6.00;;;;;;;14.74;68.87;100411.36;1749398;81;25587;-52
2023/07/15 00:06:33;;;;;;;10.72;7.87;;;;;;;14.72;69.30;100415.53;1749493;81;25602;-53
2023/07/15 00:08:59;;;;;;;10.38;7.45;;;;;;;14.72;70.10;100416.89;1749386;82;25638;-52
2023/07/15 00:11:34;;;;;;;11.03;7.92;;;;;;;14.70;70.33;100414.50;1749518;82;25606;-54
2023/07/15 00:14:04;;;;;;;10.95;7.58;;;;;;;14.73;70.60;100410.33;1721432;82;27248;-54
2023/07/15 00:16:31;;;;;;;10.48;7.10;;;;;;;14.74;70.35;100408.64;1742573;82;25265;-55
2023/07/15 00:18:58;;;;;;;9.73;6.37;;;;;;;14.74;70.42;100403.19;1742242;81;25442;-51
2023/07/15 00:21:30;;;;;;;7.90;6.75;;;;;;;14.77;70.69;100409.87;1742187;82;25671;-51
2023/07/15 00:24:00;;;;;;;13.35;7.05;;;;;;;14.76;70.68;100401.47;1742116;82;25397;-52
2023/07/15 00:26:31;;;;;;;13.20;8.10;;;;;;;14.76;71.35;100404.19;1746173;81;27397;-52
2023/07/15 00:28:58;;;;;;;12.28;7.78;;;;;;;14.77;71.14;100407.73;1742211;82;25390;-52
2023/07/15 00:31:28;;;;;;;11.00;7.08;;;;;;;14.75;71.31;100402.62;1742381;82;25482;-53
2023/07/15 00:33:54;;;;;;;10.75;7.28;;;;;;;14.76;71.18;100390.58;1742156;82;25564;-52
2023/07/15 00:36:22;;;;;;;11.55;7.10;;;;;;;14.74;70.88;100384.13;1742284;82;25382;-52
2023/07/15 00:38:48;;;;;;;11.28;6.70;;;;;;;14.76;71.35;100389.22;1742216;82;27483;-52
2023/07/15 00:41:26;;;;;;;11.38;7.00;;;;;;;14.75;71.20;100394.45;1742150;82;25628;-54
2023/07/15 00:43:55;;;;;;;11.83;7.05;;;;;;;14.75;71.08;100395.23;1742296;82;25563;-52
2023/07/15 00:46:38;;;;;;;9.98;7.55;;;;;;;14.75;71.05;100393.09;1741776;82;25397;-54
2023/07/15 00:49:13;;;;;;;12.63;7.28;;;;;;;14.76;71.30;100393.30;1742407;82;25705;-51
2023/07/15 00:52:03;;;;;;;13.40;6.83;;;;;;;14.75;72.05;100391.16;1719531;82;27448;-51
2023/07/15 00:54:35;;;;;;;8.75;6.65;;;;;;;14.77;71.62;100398.20;1742182;82;25757;-53
2023/07/15 00:57:02;;;;;;;12.05;7.45;;;;;;;14.74;71.40;100397.75;1742361;82;25604;-52
2023/07/15 00:59:31;;;;;;;10.58;8.05;;;;;;;14.72;72.05;100390.45;1742185;82;25617;-52
2023/07/15 01:02:00;;;;;;;9.58;6.87;;;;;;;14.71;72.03;100390.24;1742444;82;25381;-52
2023/07/15 01:04:27;;;;;;;10.75;6.87;;;;;;;14.72;72.13;100390.45;1742403;82;27441;-52
2023/07/15 01:06:54;;;;;;;9.80;7.47;;;;;;;14.74;72.68;100395.56;1742177;81;25627;-51
2023/07/15 01:09:25;;;;;;;11.10;7.72;;;;;;;14.72;72.50;100382.28;1742280;82;25547;-51
2023/07/15 01:11:52;;;;;;;11.25;6.67;;;;;;;14.74;72.85;100386.04;1742429;82;25576;-51
2023/07/15 01:14:19;;;;;;;11.30;7.65;;;;;;;14.74;72.99;100389.58;1746269;81;25596;-52
2023/07/15 01:16:49;;;;;;;13.90;9.13;;;;;;;14.75;73.25;100387.06;1742337;80;27339;-52
2023/07/15 01:19:19;;;;;;;10.40;8.00;;;;;;;14.75;73.61;100387.64;1742226;82;25384;-52
2023/07/15 01:21:50;;;;;;;11.57;8.48;;;;;;;14.74;73.01;100387.40;1742347;81;25585;-51
2023/07/15 01:24:18;;;;;;;18.92;17.12;;;;;;;14.69;72.68;100385.70;1742399;82;25646;-52
2023/07/15 01:26:46;;;;;;;16.62;15.05;;;;;;;14.66;72.80;100395.89;1742558;82;25563;-51
2023/07/15 01:29:13;;;;;;;20.95;19.12;;;;;;;14.64;72.65;100391.35;1742402;81;27318;-52
2023/07/15 01:31:45;;;;;;;82.97;77.55;;;;;;;14.62;72.85;100389.51;1742280;82;25395;-51
2023/07/15 01:34:09;;;;;;;13.38;11.93;;;;;;;14.59;72.95;100387.45;1741866;82;25502;-51
2023/07/15 01:36:36;;;;;;;89.83;84.10;;;;;;;14.56;72.90;100393.55;1742441;82;25498;-54
2023/07/15 01:39:06;;;;;;;88.90;83.17;;;;;;;14.52;72.94;100381.72;1746327;81;25415;-52
2023/07/15 01:41:31;;;;;;;90.60;84.47;;;;;;;14.51;73.14;100380.94;1721672;82;27329;-55
2023/07/15 01:43:58;;;;;;;89.62;83.62;;;;;;;14.48;73.38;100380.23;1742281;81;25442;-53
2023/07/15 01:46:24;;;;;;;91.32;85.32;;;;;;;14.46;73.50;100377.62;1742380;82;25629;-52
2023/07/15 01:48:50;;;;;;;90.70;84.20;;;;;;;14.46;73.34;100385.22;1742299;82;25604;-52
2023/07/15 01:51:17;;;;;;;91.50;85.50;;;;;;;14.45;73.64;100380.89;1742360;82;25421;-51
2023/07/15 01:53:43;;;;;;;32.80;30.32;;;;;;;14.45;73.68;100386.34;1742374;82;27319;-52
2023/07/15 01:56:09;;;;;;;42.83;39.70;;;;;;;14.46;73.77;100385.22;1742223;81;25790;-52
2023/07/15 01:58:36;;;;;;;54.33;50.83;;;;;;;14.45;74.23;100386.34;1742280;82;25446;-51
2023/07/15 02:01:02;;;;;;;89.72;83.87;;;;;;;14.46;74.06;100383.86;1723431;82;25541;-51
2023/07/15 02:03:28;;;;;;;91.30;85.30;;;;;;;14.47;74.11;100391.45;1742360;82;25608;-52
2023/07/15 02:05:54;;;;;;;91.72;85.72;;;;;;;14.45;74.32;100391.78;1742340;82;27382;-52
2023/07/15 02:08:22;;;;;;;89.87;84.00;;;;;;;14.44;74.22;100387.48;1742335;82;25544;-51
2023/07/15 02:10:49;;;;;;;90.05;84.22;;;;;;;14.43;74.31;100396.77;1742409;82;25399;-50
2023/07/15 02:13:16;;;;;;;89.95;84.10;;;;;;;14.39;74.50;100389.83;1742318;81;26058;-52
2023/07/15 02:15:43;;;;;;;88.05;82.45;;;;;;;14.39;74.40;100391.77;1742286;82;25592;-54
2023/07/15 02:18:09;;;;;;;89.83;84.07;;;;;;;14.37;74.34;100390.73;1742257;81;27394;-52
2023/07/15 02:20:37;;;;;;;89.72;84.00;;;;;;;14.36;74.33;100391.06;1742247;82;25584;-51
2023/07/15 02:23:04;;;;;;;92.00;85.90;;;;;;;14.33;74.26;100385.70;1742357;82;25379;-50
2023/07/15 02:25:32;;;;;;;91.20;85.30;;;;;;;14.33;74.51;100388.42;1742269;82;25544;-50
2023/07/15 02:27:58;;;;;;;88.78;82.95;;;;;;;14.31;74.35;100384.45;1742317;82;25386;-50
2023/07/15 02:30:26;;;;;;;47.53;44.15;;;;;;;14.29;74.45;100386.14;1746222;81;28327;-50
2023/07/15 02:32:54;;;;;;;27.60;25.43;;;;;;;14.27;74.52;100383.51;1699178;82;25487;-53
2023/07/15 02:35:21;;;;;;;90.57;84.42;;;;;;;14.25;74.66;100395.30;1742405;82;25537;-50
2023/07/15 02:37:49;;;;;;;88.50;82.57;;;;;;;14.22;74.96;100391.33;1742291;82;25543;-51
2023/07/15 02:40:17;;;;;;;90.00;84.10;;;;;;;14.21;75.00;100388.36;1742325;82;25453;-51
2023/07/15 02:42:43;;;;;;;87.88;82.17;;;;;;;14.20;74.82;100391.66;1742313;82;27380;-50
2023/07/15 02:45:15;;;;;;;91.40;85.55;;;;;;;14.20;74.85;100389.51;1742228;82;27202;-50
2023/07/15 02:47:41;;;;;;;90.32;84.28;;;;;;;14.19;75.25;100390.05;1742422;82;25422;-53
2023/07/15 02:50:10;;;;;;;90.97;84.97;;;;;;;14.20;75.43;100391.66;1742252;82;25606;-51
2023/07/15 02:52:41;;;;;;;89.52;83.85;;;;;;;14.19;75.26;100385.97;1742495;82;25470;-51
2023/07/15 02:55:09;;;;;;;91.97;85.97;;;;;;;14.22;75.64;100389.15;1721328;82;27412;-52
2023/07/15 02:57:36;;;;;;;88.75;83.07;;;;;;;14.20;75.52;100391.66;1739530;82;25675;-51
2023/07/15 03:00:15;;;;;;;92.17;86.28;;;;;;;14.24;75.78;100395.08;1742256;82;25533;-51
2023/07/15 03:02:35;;;;;;;90.30;84.30;;;;;;;14.24;75.81;100392.36;1741845;82;25640;-51
2023/07/15 03:05:02;;;;;;;91.32;85.50;;;;;;;14.26;76.04;100392.81;1742370;82;25562;-52
2023/07/15 03:07:29;;;;;;;89.05;83.17;;;;;;;14.28;76.10;100389.98;1742375;82;28286;-51
2023/07/15 03:09:56;;;;;;;88.72;82.92;;;;;;;14.31;76.33;100393.41;1742210;82;25441;-51
2023/07/15 03:12:23;;;;;;;90.70;84.70;;;;;;;14.33;76.61;100392.51;1742308;82;25587;-51
2023/07/15 03:14:50;;;;;;;89.47;83.67;;;;;;;14.37;76.58;100394.03;1742235;82;35225;-52
2023/07/15 03:17:17;;;;;;;90.57;84.97;;;;;;;14.39;76.64;100397.20;1748750;80;25592;-52
2023/07/15 03:19:44;;;;;;;87.82;82.05;;;;;;;14.42;76.78;100393.83;1721371;82;27462;-52
2023/07/15 03:22:10;;;;;;;90.40;84.83;;;;;;;14.45;76.89;100395.86;1749313;82;25601;-52
2023/07/15 03:24:36;;;;;;;87.67;81.82;;;;;;;14.49;77.09;100394.62;1749454;82;25576;-52
2023/07/15 03:27:04;;;;;;;90.00;83.80;;;;;;;14.51;77.04;100395.91;1749433;81;25598;-52
2023/07/15 03:29:30;;;;;;;87.75;82.00;;;;;;;14.55;77.13;100391.95;1753481;81;25571;-51
2023/07/15 03:31:56;;;;;;;87.10;81.40;;;;;;;14.59;77.04;100390.74;1749381;82;27357;-51
2023/07/15 03:34:23;;;;;;;87.95;81.97;;;;;;;14.61;76.89;100389.30;1749336;82;25620;-53
2023/07/15 03:36:50;;;;;;;88.42;82.72;;;;;;;14.63;76.79;100380.80;1749444;81;25431;-55
2023/07/15 03:39:16;;;;;;;89.65;83.85;;;;;;;14.66;76.89;100392.35;1749369;82;25636;-52
2023/07/15 03:41:42;;;;;;;87.92;82.17;;;;;;;14.69;76.97;100387.06;1749473;81;32811;-52
2023/07/15 03:44:08;;;;;;;89.70;83.85;;;;;;;14.73;76.82;100392.63;1749407;81;27411;-52
2023/07/15 03:46:34;;;;;;;87.10;81.32;;;;;;;14.77;76.98;100388.09;1749318;82;25815;-52
2023/07/15 03:49:01;;;;;;;87.33;81.32;;;;;;;14.82;77.00;100387.10;1749536;81;25574;-51
2023/07/15 03:51:27;;;;;;;86.75;80.95;;;;;;;14.85;77.17;100376.33;1749409;81;25937;-51
2023/07/15 03:53:53;;;;;;;90.17;84.28;;;;;;;14.90;77.38;100378.06;1749401;81;25594;-50
2023/07/15 03:56:19;;;;;;;91.02;85.35;;;;;;;14.96;77.09;100373.19;1749443;81;28006;-50
2023/07/15 03:58:45;;;;;;;88.40;82.53;;;;;;;15.00;77.35;100385.80;1749300;82;25551;-50
2023/07/15 04:01:12;;;;;;;90.45;84.77;;;;;;;15.07;77.30;100387.41;1749500;82;25542;-50
2023/07/15 04:03:39;;;;;;;89.47;83.62;;;;;;;15.11;77.22;100391.61;1749371;82;25454;-50
2023/07/15 04:06:06;;;;;;;87.30;81.78;;;;;;;15.17;77.27;100394.36;1749480;82;25485;-51
2023/07/15 04:08:32;;;;;;;89.28;83.55;;;;;;;15.23;77.33;100393.56;1749490;82;27325;-51
2023/07/15 04:10:58;;;;;;;89.95;84.25;;;;;;;15.29;77.24;100399.04;1749252;82;25462;-51
2023/07/15 04:13:24;;;;;;;86.67;80.92;;;;;;;15.35;76.86;100405.05;1749425;82;25579;-52
2023/07/15 04:15:51;;;;;;;86.08;80.55;;;;;;;15.38;76.83;100403.81;1728398;81;25631;-52
2023/07/15 04:18:17;;;;;;;89.28;83.40;;;;;;;15.45;76.76;100408.70;1752376;81;25607;-51
2023/07/15 04:20:43;;;;;;;86.15;80.50;;;;;;;15.50;76.73;100411.99;1752350;81;28197;-51
2023/07/15 04:23:09;;;;;;;90.70;84.62;;;;;;;15.56;76.70;100401.69;1752362;81;25533;-51
2023/07/15 04:25:35;;;;;;;86.97;81.37;;;;;;;15.61;76.83;100400.09;1752436;81;28172;-51
2023/07/15 04:28:01;;;;;;;87.08;81.37;;;;;;;15.67;76.66;100408.26;1752335;81;25589;-51
2023/07/15 04:30:28;;;;;;;88.52;82.80;;;;;;;15.75;76.85;100410.69;1752329;81;25672;-53
2023/07/15 04:32:54;;;;;;;86.90;81.30;;;;;;;15.81;76.87;100413.40;1712193;81;27265;-51
2023/07/15 04:35:20;;;;;;;87.82;82.20;;;;;;;16.08;76.73;100427.48;1752265;81;33209;-52
2023/07/15 04:37:46;;;;;;;86.85;81.50;;;;;;;16.08;76.73;100427.48;1752362;81;25626;-51
2023/07/15 04:40:12;;;;;;;91.12;85.30;;;;;;;16.05;76.60;100407.13;1752249;81;35174;-53
2023/07/15 04:42:39;;;;;;;88.42;82.75;;;;;;;16.14;76.31;100416.58;1752390;81;25627;-54
2023/07/15 04:45:08;;;;;;;87.08;81.47;;;;;;;16.19;75.90;100417.70;1752484;81;27408;-53
2023/07/15 04:47:36;;;;;;;87.00;81.35;;;;;;;16.26;75.37;100423.95;1746527;81;25661;-53
2023/07/15 04:50:05;;;;;;;87.20;81.65;;;;;;;16.32;75.40;100417.67;1752678;81;25437;-54
2023/07/15 04:52:31;;;;;;;87.90;82.30;;;;;;;16.39;75.54;100412.42;1721095;81;25463;-55
2023/07/15 04:54:57;;;;;;;86.22;80.65;;;;;;;16.49;75.56;100409.78;1752486;81;25496;-52
2023/07/15 04:57:24;;;;;;;89.80;84.10;;;;;;;16.56;75.55;100410.77;1752527;81;28322;-52
2023/07/15 04:59:53;;;;;;;86.05;80.40;;;;;;;16.64;75.21;100405.53;1752389;81;25590;-53
2023/07/15 05:02:22;;;;;;;86.53;80.97;;;;;;;16.71;74.77;100402.99;1752615;81;25632;-55
2023/07/15 05:04:49;;;;;;;85.92;80.35;;;;;;;16.76;74.55;100404.11;1752484;81;25400;-54
2023/07/15 05:07:15;;;;;;;86.65;81.08;;;;;;;16.85;74.32;100403.41;1752574;81;25417;-54
2023/07/15 05:09:42;;;;;;;85.27;79.80;;;;;;;16.93;74.00;100393.48;1741575;81;27325;-53
2023/07/15 05:12:10;;;;;;;86.45;81.05;;;;;;;17.02;74.11;100390.58;1752291;81;27180;-54
2023/07/15 05:14:37;;;;;;;86.87;80.90;;;;;;;17.16;74.53;100386.84;1745543;81;25485;-51
2023/07/15 05:17:08;;;;;;;85.32;79.97;;;;;;;17.28;74.10;100386.78;1746697;81;25827;-51
2023/07/15 05:19:35;;;;;;;85.85;80.57;;;;;;;17.39;73.57;100388.41;1742454;82;25383;-52
2023/07/15 05:22:04;;;;;;;85.50;80.40;;;;;;;17.52;73.15;100390.47;1742390;82;27314;-52
2023/07/15 05:24:31;;;;;;;87.12;81.80;;;;;;;17.61;72.89;100386.99;1742322;81;25674;-53
2023/07/15 05:26:59;;;;;;;82.65;77.62;;;;;;;17.72;72.52;100383.95;1742399;82;25564;-52
2023/07/15 05:29:25;;;;;;;87.12;81.63;;;;;;;17.85;72.24;100385.20;1742326;82;25619;-55
2023/07/15 05:31:51;;;;;;;83.10;78.00;;;;;;;17.95;72.32;100382.53;1742380;82;25548;-52
2023/07/15 05:34:19;;;;;;;86.22;80.95;;;;;;;18.16;71.77;100387.09;1742362;82;27342;-56
2023/07/15 05:36:45;;;;;;;84.20;78.70;;;;;;;18.36;71.37;100389.86;1742293;81;25694;-54
2023/07/15 05:39:12;;;;;;;83.47;78.30;;;;;;;18.55;71.17;100391.22;1746316;81;25432;-52
2023/07/15 05:41:38;;;;;;;84.95;79.82;;;;;;;18.77;70.13;100395.17;1742335;82;25976;-52
2023/07/15 05:44:05;;;;;;;84.95;79.77;;;;;;;19.01;69.01;100402.31;1742376;82;25592;-52
2023/07/15 05:46:31;;;;;;;81.42;76.55;;;;;;;19.21;68.34;100394.84;1742371;82;27403;-52
2023/07/15 05:48:58;;;;;;;84.60;79.45;;;;;;;19.42;67.65;100392.25;1742300;82;25653;-52
2023/07/15 05:51:25;;;;;;;81.85;76.87;;;;;;;19.69;67.31;100395.03;1742333;82;25445;-52
2023/07/15 05:53:51;;;;;;;82.33;77.55;;;;;;;19.96;66.91;100393.89;1742418;82;25418;-53
2023/07/15 05:56:17;;;;;;;82.02;77.30;;;;;;;20.19;65.71;100388.12;1742335;82;25383;-53
2023/07/15 05:58:43;;;;;;;80.97;76.15;;;;;;;20.38;65.22;100394.86;1742357;82;27329;-53
2023/07/15 06:01:09;;;;;;;78.67;74.17;;;;;;;20.58;65.35;100394.69;1742302;82;25634;-53
2023/07/15 06:03:36;;;;;;;80.22;75.00;;;;;;;20.76;63.96;100404.56;1742331;82;25401;-53
2023/07/15 06:06:03;;;;;;;78.72;74.03;;;;;;;20.90;62.26;100397.23;1742335;82;26365;-53
2023/07/15 06:08:31;;;;;;;80.90;76.10;;;;;;;21.03;62.48;100390.12;1746207;81;25712;-52
2023/07/15 06:10:58;;;;;;;77.78;73.30;;;;;;;21.17;61.31;100392.99;1721934;82;27998;-53
2023/07/15 06:13:25;;;;;;;78.50;73.70;;;;;;;21.34;60.99;100388.04;1742224;81;25790;-54
2023/07/15 06:15:52;;;;;;;80.57;75.72;;;;;;;21.52;60.27;100396.45;1742298;82;25541;-54
2023/07/15 06:18:19;;;;;;;82.05;77.15;;;;;;;21.64;60.33;100390.08;1742179;82;25660;-52
2023/07/15 06:20:50;;;;;;;79.50;74.80;;;;;;;21.79;60.75;100389.60;1742269;82;25533;-52
2023/07/15 06:23:16;;;;;;;79.15;74.65;;;;;;;21.97;60.26;100386.94;1742289;82;27389;-57
2023/07/15 06:25:42;;;;;;;80.70;75.97;;;;;;;22.12;59.63;100380.94;1742235;81;25891;-52
2023/07/15 06:28:08;;;;;;;81.67;76.70;;;;;;;22.28;59.25;100378.48;1742319;82;25584;-52
2023/07/15 06:30:34;;;;;;;78.25;73.75;;;;;;;22.42;58.46;100382.66;1742273;82;26306;-54
2023/07/15 06:33:01;;;;;;;80.95;76.22;;;;;;;22.57;58.04;100384.89;1742362;82;25373;-52
2023/07/15 06:35:27;;;;;;;82.17;77.53;;;;;;;22.75;58.03;100393.22;1742295;82;27354;-52
2023/07/15 06:37:53;;;;;;;77.35;73.00;;;;;;;22.94;57.58;100390.11;1742196;82;27257;-53
2023/07/15 06:40:19;;;;;;;79.60;75.10;;;;;;;23.12;57.77;100391.55;1742270;82;25563;-52
2023/07/15 06:42:48;;;;;;;79.37;74.85;;;;;;;23.29;57.23;100385.86;1742231;82;25607;-52
2023/07/15 06:45:19;;;;;;;77.82;73.30;;;;;;;23.50;56.35;100386.44;1742355;82;25726;-53
2023/07/15 06:47:46;;;;;;;75.47;71.07;;;;;;;23.69;55.26;100388.59;1742412;82;27342;-54
2023/07/15 06:50:12;;;;;;;79.65;75.12;;;;;;;23.84;53.69;100379.13;1742248;81;32447;-54
2023/07/15 06:52:38;;;;;;;73.33;69.25;;;;;;;24.01;53.68;100376.13;1742263;82;25387;-53
2023/07/15 06:55:07;;;;;;;77.15;72.95;;;;;;;24.17;51.92;100379.82;1746101;81;25673;-52
2023/07/15 06:57:33;;;;;;;75.47;71.30;;;;;;;24.27;51.92;100374.07;1739073;82;25630;-52
2023/07/15 06:59:59;;;;;;;76.60;72.23;;;;;;;24.42;51.75;100378.95;1742270;81;27409;-54
2023/07/15 07:02:25;;;;;;;74.92;70.52;;;;;;;24.57;50.69;100372.80;1742172;82;25644;-52
2023/07/15 07:04:51;;;;;;;73.97;69.53;;;;;;;24.68;50.33;100370.73;1746298;81;25500;-55
2023/07/15 07:07:22;;;;;;;77.97;73.70;;;;;;;24.78;49.59;100369.11;1742195;82;25676;-51
2023/07/15 07:09:45;;;;;;;72.45;68.22;;;;;;;24.86;49.30;100378.95;1742384;82;25416;-53
2023/07/15 07:12:12;;;;;;;77.67;73.10;;;;;;;24.93;48.41;100367.05;1742244;82;29683;-51
2023/07/15 07:14:39;;;;;;;74.53;70.47;;;;;;;25.04;49.16;100365.58;1742270;82;25551;-53
2023/07/15 07:17:05;;;;;;;76.63;72.43;;;;;;;25.20;49.10;100370.02;1742263;82;25615;-55
2023/07/15 07:19:31;;;;;;;76.17;71.90;;;;;;;25.40;47.92;100363.34;1742187;82;25670;-51
2023/07/15 07:21:58;;;;;;;73.87;69.60;;;;;;;25.51;47.68;100368.19;1742261;82;25373;-55
2023/07/15 07:24:24;;;;;;;74.62;70.22;;;;;;;25.61;47.21;100367.91;1742352;82;27301;-55
2023/07/15 07:26:51;;;;;;;74.12;70.05;;;;;;;25.71;46.31;100362.86;1742160;82;25437;-56
2023/07/15 07:29:17;;;;;;;72.42;68.30;;;;;;;25.77;44.90;100368.73;1742236;82;25569;-52
2023/07/15 07:31:44;;;;;;;70.20;66.40;;;;;;;25.78;45.85;100358.42;1742256;82;25602;-52
2023/07/15 07:34:11;;;;;;;74.80;70.40;;;;;;;25.94;45.88;100359.27;1742241;81;25536;-53
2023/07/15 07:36:37;;;;;;;70.50;66.20;;;;;;;26.13;45.67;100348.19;1742223;82;27395;-52
2023/07/15 07:39:03;;;;;;;69.22;65.45;;;;;;;26.24;45.36;100345.47;1742189;82;25375;-52
2023/07/15 07:41:30;;;;;;;70.08;66.22;;;;;;;26.35;45.41;100344.55;1742275;82;25486;-52
2023/07/15 07:43:56;;;;;;;71.95;67.85;;;;;;;26.53;45.38;100345.09;1742178;82;25608;-53
2023/07/15 07:46:23;;;;;;;70.17;66.42;;;;;;;26.72;44.74;100345.66;1742224;82;25419;-54
2023/07/15 07:48:49;;;;;;;71.75;67.50;;;;;;;26.92;44.23;100346.55;1742257;82;27313;-52
2023/07/15 07:51:15;;;;;;;71.62;67.62;;;;;;;27.13;42.80;100345.41;1745998;81;25547;-52
2023/07/15 07:53:41;;;;;;;75.65;71.62;;;;;;;27.35;42.49;100343.70;1742248;82;25542;-52
2023/07/15 07:56:11;;;;;;;74.45;70.32;;;;;;;27.54;42.96;100341.55;1742218;81;26357;-52
2023/07/15 07:58:35;;;;;;;73.92;69.80;;;;;;;27.74;41.69;100342.98;1742469;82;25460;-53
2023/07/15 08:01:01;;;;;;;72.85;68.95;;;;;;;27.81;41.28;100339.90;1742310;81;27386;-52
2023/07/15 08:03:29;;;;;;;71.70;67.70;;;;;;;27.91;41.21;100343.84;1742241;82;25652;-55
2023/07/15 08:05:57;;;;;;;69.75;65.83;;;;;;;28.05;41.48;100341.41;1742388;82;25630;-54
2023/07/15 08:08:24;;;;;;;71.92;67.75;;;;;;;28.30;40.96;100335.95;1742321;82;25606;-52
2023/07/15 08:10:51;;;;;;;73.30;69.40;;;;;;;28.49;40.35;100337.12;1742286;82;25666;-53
2023/07/15 08:13:17;;;;;;;70.25;66.25;;;;;;;28.59;39.73;100341.70;1742245;82;28025;-53
2023/07/15 08:15:43;;;;;;;71.70;67.80;;;;;;;28.57;38.99;100337.77;1742107;82;25584;-56
2023/07/15 08:18:10;;;;;;;70.67;66.70;;;;;;;28.70;38.86;100344.23;1742082;82;25595;-53
2023/07/15 08:20:41;;;;;;;71.28;67.47;;;;;;;28.73;38.90;100346.77;1742160;82;25695;-53
2023/07/15 08:23:07;;;;;;;71.95;68.12;;;;;;;29.00;38.34;100345.13;1742328;82;25536;-56
2023/07/15 08:25:34;;;;;;;68.00;64.30;;;;;;;29.14;37.47;100355.13;1742232;82;27401;-56
2023/07/15 08:28:00;;;;;;;69.15;65.55;;;;;;;29.19;37.40;100347.67;1742158;82;25636;-54
2023/07/15 08:30:27;;;;;;;72.67;68.83;;;;;;;29.43;37.51;100357.38;1742232;82;25549;-53
2023/07/15 08:32:53;;;;;;;69.32;65.62;;;;;;;29.56;36.33;100348.33;1742184;82;25676;-55
2023/07/15 08:35:19;;;;;;;69.00;65.30;;;;;;;29.62;36.11;100346.55;1742286;82;25579;-56
2023/07/15 08:37:46;;;;;;;71.12;67.32;;;;;;;29.68;35.70;100332.86;1742242;82;27428;-54
2023/07/15 08:40:13;;;;;;;68.47;64.87;;;;;;;29.70;35.69;100340.97;1742174;82;27242;-54
2023/07/15 08:42:43;;;;;;;68.20;64.30;;;;;;;29.70;35.69;100343.75;1742430;82;25551;-54
2023/07/15 08:45:11;;;;;;;70.28;66.60;;;;;;;29.76;36.22;100332.28;1742162;82;25700;-52
2023/07/15 08:47:43;;;;;;;31.82;29.85;;;;;;;30.04;36.37;100326.34;1739356;82;25572;-53
2023/07/15 08:50:12;;;;;;;4.25;2.95;;;;;;;30.34;35.52;100338.37;1742034;82;27246;-52
2023/07/15 08:52:43;;;;;;;3.30;3.00;;;;;;;30.30;34.88;100331.34;1742190;82;25637;-53
2023/07/15 08:55:12;;;;;;;4.15;2.90;;;;;;;30.41;35.62;100331.03;1720853;82;25419;-53
2023/07/15 08:57:39;;;;;;;7.60;2.52;;;;;;;30.69;35.40;100322.40;1742331;81;25681;-55
2023/07/15 09:00:10;;;;;;;3.37;2.90;;;;;;;30.82;34.92;100320.38;1742376;82;25409;-51
2023/07/15 09:02:38;;;;;;;3.52;2.42;;;;;;;30.93;34.92;100327.63;1719895;82;27345;-52
2023/07/15 09:05:08;;;;;;;3.10;2.80;;;;;;;30.88;33.89;100325.55;1742272;82;25433;-54
2023/07/15 09:07:54;;;;;;;4.58;3.60;;;;;;;30.82;33.99;100314.80;1746195;81;25548;-53
2023/07/15 09:10:21;;;;;;;3.00;2.70;;;;;;;30.88;34.30;100312.22;1742364;82;26239;-55
2023/07/15 09:12:54;;;;;;;4.77;2.80;;;;;;;30.94;32.86;100325.02;1742517;82;25382;-51
2023/07/15 09:15:22;;;;;;;5.00;2.62;;;;;;;30.97;33.99;100318.53;1742246;82;27410;-51
2023/07/15 09:17:57;;;;;;;6.53;2.95;;;;;;;31.14;33.94;100307.38;1744806;82;25572;-53
2023/07/15 09:20:27;;;;;;;5.42;2.70;;;;;;;31.27;33.57;100301.14;1749399;82;25395;-57
2023/07/15 09:23:01;;;;;;;6.62;2.90;;;;;;;31.37;33.44;100296.42;1749355;82;26298;-56
2023/07/15 09:25:28;;;;;;;4.62;2.62;;;;;;;31.53;33.73;100292.69;1749456;82;25398;-52
2023/07/15 09:27:55;;;;;;;3.50;3.15;;;;;;;31.91;33.49;100297.91;1749372;82;27972;-56
2023/07/15 09:30:22;;;;;;;4.60;3.00;;;;;;;32.14;33.44;100299.48;1749300;81;25367;-53
2023/07/15 09:32:49;;;;;;;8.23;5.50;;;;;;;32.34;32.90;100294.30;1749563;82;25551;-56
2023/07/15 09:35:15;;;;;;;8.80;8.00;;;;;;;32.38;32.32;100299.12;1749428;82;27784;-54
2023/07/15 09:37:51;;;;;;;11.45;10.65;;;;;;;32.49;31.71;100300.74;1749567;82;25578;-56
2023/07/15 09:40:18;;;;;;;7.00;6.47;;;;;;;32.49;31.54;100302.91;1749470;82;27401;-57
2023/07/15 09:42:54;;;;;;;23.27;21.85;;;;;;;32.51;31.15;100296.23;1749455;81;25606;-57
2023/07/15 09:45:40;;;;;;;15.45;14.45;;;;;;;32.39;31.27;100295.09;1749588;82;25650;-54
2023/07/15 09:48:11;;;;;;;22.30;21.00;;;;;;;32.34;31.14;100293.52;1753569;81;25836;-54
2023/07/15 09:50:41;;;;;;;55.03;52.25;;;;;;;32.32;31.51;100286.21;1749561;81;25373;-54
2023/07/15 09:53:10;;;;;;;68.47;64.82;;;;;;;32.44;31.23;100285.32;1749570;82;27476;-54
2023/07/15 09:55:39;;;;;;;67.85;64.45;;;;;;;32.53;30.67;100290.94;1749567;81;25425;-54
2023/07/15 09:58:20;;;;;;;68.28;64.82;;;;;;;32.44;31.51;100277.52;1749559;82;25564;-53
2023/07/15 10:00:54;;;;;;;64.77;61.53;;;;;;;32.72;32.00;100277.03;1749444;81;26367;-57
2023/07/15 10:03:29;;;;;;;66.02;62.62;;;;;;;32.93;31.24;100280.34;1749561;81;25184;-55
2023/07/15 10:05:56;;;;;;;17.85;16.85;;;;;;;33.22;31.50;100276.96;1748909;81;27271;-56
2023/07/15 10:08:25;;;;;;;67.67;64.00;;;;;;;33.33;30.67;100276.52;1749366;82;25266;-56
2023/07/15 10:10:51;;;;;;;68.00;64.17;;;;;;;33.44;29.86;100272.60;1749630;82;25462;-54
2023/07/15 10:13:18;;;;;;;67.75;64.15;;;;;;;33.33;29.98;100270.91;1749461;81;25612;-56
2023/07/15 10:15:45;;;;;;;66.92;63.58;;;;;;;33.35;30.34;100269.81;1749540;82;25602;-57
2023/07/15 10:18:22;;;;;;;71.55;67.92;;;;;;;33.42;29.86;100260.45;1746561;82;27400;-54
2023/07/15 10:21:04;;;;;;;5.37;4.87;;;;;;;33.41;29.86;100260.95;1742301;82;25641;-53
2023/07/15 10:23:33;;;;;;;6.12;4.97;;;;;;;33.57;29.86;100265.44;1742312;82;25442;-54
2023/07/15 10:26:08;;;;;;;7.55;6.92;;;;;;;33.66;29.62;100262.61;1742319;82;25615;-55
2023/07/15 10:28:39;;;;;;;65.57;62.25;;;;;;;33.71;28.40;100259.83;1742392;81;25588;-55
2023/07/15 10:31:15;;;;;;;67.62;64.27;;;;;;;33.56;28.67;100256.26;1742374;82;27364;-51
2023/07/15 10:33:56;;;;;;;63.87;60.58;;;;;;;33.40;29.33;100246.13;1742230;82;25603;-52
2023/07/15 10:36:45;;;;;;;65.55;62.15;;;;;;;33.73;29.57;100245.51;1742380;82;25587;-54
2023/07/15 10:39:22;;;;;;;67.82;64.32;;;;;;;34.06;29.44;100253.19;1742419;82;32314;-53
2023/07/15 10:41:53;;;;;;;68.95;64.92;;;;;;;34.07;28.53;100261.74;1742352;82;25540;-53
2023/07/15 10:44:23;;;;;;;4.55;4.15;;;;;;;34.12;28.78;100249.88;1742341;82;27319;-55
2023/07/15 10:47:05;;;;;;;66.57;63.17;;;;;;;34.28;28.51;100257.19;1742248;82;25671;-55
2023/07/15 10:49:32;;;;;;;65.42;62.13;;;;;;;34.47;28.80;100254.30;1742317;81;25548;-53
2023/07/15 10:51:59;;;;;;;20.43;19.30;;;;;;;34.82;28.69;100253.17;1742427;82;25676;-54
2023/07/15 10:54:32;;;;;;;64.10;60.55;;;;;;;34.90;27.37;100255.75;1742340;82;25448;-54
2023/07/15 10:57:08;;;;;;;67.32;63.87;;;;;;;34.59;27.47;100247.66;1742351;81;27316;-56
2023/07/15 10:59:39;;;;;;;64.35;61.10;;;;;;;34.62;28.07;100242.50;1742289;82;25587;-56
2023/07/15 11:02:07;;;;;;;66.85;63.38;;;;;;;34.83;27.95;100228.03;1742329;81;25630;-54
2023/07/15 11:04:36;;;;;;;66.67;63.35;;;;;;;34.94;27.08;100232.48;1742419;82;26242;-56
2023/07/15 11:07:10;;;;;;;65.20;61.88;;;;;;;34.79;27.45;100231.02;1742342;82;25385;-56
2023/07/15 11:09:42;;;;;;;66.07;62.67;;;;;;;34.65;27.19;100225.31;1742305;82;27336;-53
2023/07/15 11:12:11;;;;;;;65.95;62.15;;;;;;;34.73;27.70;100223.09;1742214;82;25602;-56
2023/07/15 11:14:45;;;;;;;64.97;60.65;;;;;;;35.15;27.27;100231.22;1742303;82;25616;-55
2023/07/15 11:17:17;;;;;;;64.30;61.13;;;;;;;35.18;27.07;100226.05;1742289;82;25580;-59